createdAt,value
2022-11-12T00:00:32.241Z,100566.22
2022-11-12T00:03:21.031Z,100579.75
2022-11-12T00:06:09.599Z,100581.09
2022-11-12T00:08:57.914Z,100583.28
2022-11-12T00:11:46.801Z,100586.16
2022-11-12T00:14:35.106Z,100581.38
2022-11-12T00:17:23.502Z,100582.84
2022-11-12T00:20:13.100Z,100588.22
2022-11-12T00:23:01.710Z,100579.47
2022-11-12T00:25:49.988Z,100589.28
2022-11-12T00:28:39.446Z,100595.66
2022-11-12T00:31:28.643Z,100597.84
2022-11-12T00:34:17.317Z,100604.41
2022-11-12T00:37:06.895Z,100591.03
2022-11-12T00:39:55.696Z,100615.38
2022-11-12T00:42:43.765Z,100617.44
2022-11-12T00:45:32.559Z,100624.75
2022-11-12T00:48:21.029Z,100621.59
2022-11-12T00:51:09.707Z,100623.66
2022-11-12T00:53:58.080Z,100619.50
2022-11-12T00:56:48.903Z,100618.03
2022-11-12T00:59:36.925Z,100612.69
2022-11-12T01:02:25.802Z,100620.97
2022-11-12T01:05:14.453Z,100623.31
2022-11-12T01:08:03.309Z,100620.53
2022-11-12T01:10:52.543Z,100626.13
2022-11-12T01:13:44.532Z,100622.53
2022-11-12T01:16:37.371Z,100623.84
2022-11-12T01:19:26.118Z,100624.13
2022-11-12T01:22:14.717Z,100618.06
2022-11-12T01:25:03.544Z,100632.19
2022-11-12T01:27:51.955Z,100615.03
2022-11-12T01:30:40.665Z,100625.75
2022-11-12T01:33:29.064Z,100618.44
2022-11-12T01:36:18.976Z,100624.06
2022-11-12T01:39:08.922Z,100619.66
2022-11-12T01:41:57.518Z,100618.19
2022-11-12T01:44:47.775Z,100613.13
2022-11-12T01:47:36.949Z,100617.75
2022-11-12T01:50:43.545Z,100616.78
2022-11-12T01:53:34.617Z,100592.13
2022-11-12T01:56:24.292Z,100618.53
2022-11-12T01:59:18.545Z,100618.53
2022-11-12T02:02:06.849Z,100602.22
2022-11-12T02:04:56.202Z,100601.47
2022-11-12T02:07:48.123Z,100592.69
2022-11-12T02:10:37.165Z,100592.44
2022-11-12T02:13:43.948Z,100586.69
2022-11-12T02:16:39.712Z,100578.81
2022-11-12T02:19:28.153Z,100580.31
2022-11-12T02:22:16.779Z,100578.94
2022-11-12T02:25:05.336Z,100583.78
2022-11-12T02:27:56.013Z,100587.16
2022-11-12T02:30:51.548Z,100584.13
2022-11-12T02:33:40.030Z,100588.16
2022-11-12T02:36:29.321Z,100579.75
2022-11-12T02:39:18.047Z,100579.81
2022-11-12T02:42:06.984Z,100573.91
2022-11-12T02:44:55.796Z,100579.16
2022-11-12T02:47:43.984Z,100569.34
2022-11-12T02:50:32.628Z,100569.22
2022-11-12T02:53:21.093Z,100566.56
2022-11-12T02:56:09.813Z,100563.47
2022-11-12T02:58:58.090Z,100551.56
2022-11-12T03:01:46.298Z,100563.47
2022-11-12T03:04:34.741Z,100551.28
2022-11-12T03:07:23.725Z,100547.38
2022-11-12T03:10:12.128Z,100564.75
2022-11-12T03:13:02.733Z,100556.66
2022-11-12T03:15:50.815Z,100532.97
2022-11-12T03:18:39.522Z,100550.13
2022-11-12T03:21:27.917Z,100550.53
2022-11-12T03:24:16.425Z,100546.34
2022-11-12T03:27:04.784Z,100542.44
2022-11-12T03:29:54.324Z,100543.09
2022-11-12T03:32:43.582Z,100530.06
2022-11-12T03:35:33.331Z,100525.22
2022-11-12T03:38:22.111Z,100519.75
2022-11-12T03:41:10.382Z,100516.72
2022-11-12T03:43:58.591Z,100511.97
2022-11-12T03:46:50.643Z,100511.75
2022-11-12T03:49:39.133Z,100515.19
2022-11-12T03:52:27.802Z,100506.91
2022-11-12T03:55:18.339Z,100504.81
2022-11-12T03:58:08.715Z,100501.19
2022-11-12T04:00:56.859Z,100506.75
2022-11-12T04:03:45.465Z,100500.31
2022-11-12T04:06:52.220Z,100501.09
2022-11-12T04:09:40.973Z,100502.06
2022-11-12T04:12:47.258Z,100498.38
2022-11-12T04:15:35.997Z,100509.97
2022-11-12T04:18:42.502Z,100499.06
2022-11-12T04:21:52.483Z,100491.38
2022-11-12T04:25:01.363Z,100491.06
2022-11-12T04:27:50.028Z,100499.41
2022-11-12T04:30:38.457Z,100484.09
2022-11-12T04:33:27.270Z,100491.28
2022-11-12T04:36:15.564Z,100492.84
2022-11-12T04:39:04.698Z,100491.06
2022-11-12T04:42:10.829Z,100489.47
2022-11-12T04:45:04.906Z,100486.75
2022-11-12T04:47:53.066Z,100486.16
2022-11-12T04:50:42.864Z,100484.28
2022-11-12T04:53:32.242Z,100487.09
2022-11-12T04:56:21.135Z,100463.06
2022-11-12T04:59:09.566Z,100482.94
2022-11-12T05:01:58.336Z,100484.19
2022-11-12T05:04:46.995Z,100499.06
2022-11-12T05:07:36.052Z,100496.56
2022-11-12T05:10:24.308Z,100486.72
2022-11-12T05:13:12.987Z,100496.31
2022-11-12T05:16:01.552Z,100489.03
2022-11-12T05:18:50.320Z,100487.16
2022-11-12T05:21:56.652Z,100479.00
2022-11-12T05:24:46.925Z,100487.50
2022-11-12T05:27:35.569Z,100486.66
2022-11-12T05:30:24.536Z,100488.63
2022-11-12T05:33:13.069Z,100493.53
2022-11-12T05:36:02.128Z,100496.69
2022-11-12T05:38:52.798Z,100494.59
2022-11-12T05:42:10.720Z,100494.94
2022-11-12T05:44:49.705Z,100496.81
2022-11-12T05:47:38.390Z,100492.63
2022-11-12T05:50:34.979Z,100506.31
2022-11-12T05:53:28.728Z,100501.28
2022-11-12T05:56:16.974Z,100499.72
2022-11-12T05:59:08.397Z,100500.03
2022-11-12T06:01:59.991Z,100503.34
2022-11-12T06:04:48.873Z,100501.63
2022-11-12T06:07:37.108Z,100504.91
2022-11-12T06:10:25.886Z,100500.91
2022-11-12T06:13:14.494Z,100503.16
2022-11-12T06:16:03.144Z,100504.13
2022-11-12T06:18:51.777Z,100507.28
2022-11-12T06:21:40.559Z,100507.84
2022-11-12T06:24:35.165Z,100505.13
2022-11-12T06:27:25.293Z,100502.75
2022-11-12T06:30:13.950Z,100502.81
2022-11-12T06:33:03.444Z,100502.81
2022-11-12T06:36:04.206Z,100508.97
2022-11-12T06:38:53.228Z,100503.97
2022-11-12T06:41:41.675Z,100502.44
2022-11-12T06:44:30.460Z,100506.16
2022-11-12T06:47:19.351Z,100509.28
2022-11-12T06:50:07.833Z,100510.16
2022-11-12T06:53:00.686Z,100516.19
2022-11-12T06:55:51.969Z,100502.34
2022-11-12T06:58:40.896Z,100511.31
2022-11-12T07:01:29.173Z,100516.00
2022-11-12T07:04:18.215Z,100518.84
2022-11-12T07:07:10.416Z,100521.16
2022-11-12T07:09:59.642Z,100523.97
2022-11-12T07:12:53.022Z,100515.53
2022-11-12T07:15:42.210Z,100505.75
2022-11-12T07:18:31.814Z,100490.50
2022-11-12T07:21:22.059Z,100508.88
2022-11-12T07:24:10.765Z,100513.72
2022-11-12T07:26:59.779Z,100510.03
2022-11-12T07:29:48.849Z,100515.75
2022-11-12T07:32:44.009Z,100512.22
2022-11-12T07:35:33.988Z,100523.97
2022-11-12T07:38:22.750Z,100508.50
2022-11-12T07:41:19.955Z,100515.63
2022-11-12T07:44:08.940Z,100511.13
2022-11-12T07:46:57.268Z,100507.66
2022-11-12T07:49:45.852Z,100507.66
2022-11-12T07:52:34.828Z,100508.16
2022-11-12T07:55:23.654Z,100509.28
2022-11-12T07:58:12.045Z,100521.94
2022-11-12T08:01:08.296Z,100508.69
2022-11-12T08:03:56.847Z,100515.91
2022-11-12T08:06:45.502Z,100523.28
2022-11-12T08:09:33.668Z,100526.63
2022-11-12T08:12:22.555Z,100524.66
2022-11-12T08:15:11.189Z,100524.66
2022-11-12T08:18:00.279Z,100531.69
2022-11-12T08:20:48.177Z,100533.75
2022-11-12T08:23:36.699Z,100540.88
2022-11-12T08:26:25.351Z,100545.69
2022-11-12T08:29:14.193Z,100544.94
2022-11-12T08:32:02.423Z,100549.63
2022-11-12T08:34:51.018Z,100546.69
2022-11-12T08:37:39.258Z,100550.50
2022-11-12T08:40:29.485Z,100558.88
2022-11-12T08:43:17.659Z,100550.09
2022-11-12T08:46:06.860Z,100557.41
2022-11-12T08:48:55.391Z,100556.78
2022-11-12T08:51:44.327Z,100548.03
2022-11-12T08:54:32.647Z,100555.75
2022-11-12T08:57:21.401Z,100566.94
2022-11-12T09:00:11.295Z,100567.66
2022-11-12T09:03:07.553Z,100546.94
2022-11-12T09:05:56.036Z,100575.66
2022-11-12T09:08:45.560Z,100570.53
2022-11-12T09:11:33.847Z,100574.50
2022-11-12T09:14:22.737Z,100571.56
2022-11-12T09:17:11.279Z,100573.03
2022-11-12T09:19:59.945Z,100575.94
2022-11-12T09:22:50.854Z,100577.63
2022-11-12T09:25:40.280Z,100585.19
2022-11-12T09:28:28.698Z,100589.72
2022-11-12T09:31:17.765Z,100593.81
2022-11-12T09:34:07.246Z,100592.66
2022-11-12T09:36:57.197Z,100586.84
2022-11-12T09:39:45.311Z,100587.44
2022-11-12T09:42:37.716Z,100596.09
2022-11-12T09:45:34.199Z,100606.78
2022-11-12T09:48:38.324Z,100600.66
2022-11-12T09:51:33.907Z,100596.91
2022-11-12T09:54:22.896Z,100603.06
2022-11-12T09:57:14.217Z,100606.78
2022-11-12T10:00:04.609Z,100617.31
2022-11-12T10:03:04.288Z,100614.09
2022-11-12T10:06:12.911Z,100620.56
2022-11-12T10:09:30.354Z,100628.53
2022-11-12T10:12:34.326Z,100637.41
2022-11-12T10:15:58.804Z,100639.28
2022-11-12T10:19:01.341Z,100601.97
2022-11-12T10:22:05.753Z,100616.63
2022-11-12T10:24:54.673Z,100629.13
2022-11-12T10:27:44.356Z,100622.25
2022-11-12T10:30:33.020Z,100612.59
2022-11-12T10:33:21.285Z,100625.56
2022-11-12T10:36:32.542Z,100631.94
2022-11-12T10:39:39.137Z,100625.13
2022-11-12T10:42:28.315Z,100626.28
2022-11-12T10:45:24.698Z,100631.78
2022-11-12T10:48:34.987Z,100625.84
2022-11-12T10:51:41.819Z,100621.56
2022-11-12T10:54:36.601Z,100620.41
2022-11-12T10:57:28.284Z,100630.41
2022-11-12T11:00:19.380Z,100637.53
2022-11-12T11:03:09.076Z,100646.69
2022-11-12T11:05:59.893Z,100642.94
2022-11-12T11:08:50.953Z,100641.28
2022-11-12T11:11:49.533Z,100642.44
2022-11-12T11:14:39.401Z,100638.78
2022-11-12T11:17:28.001Z,100638.84
2022-11-12T11:20:43.094Z,100628.06
2022-11-12T11:23:54.633Z,100626.09
2022-11-12T11:27:04.612Z,100622.97
2022-11-12T11:30:14.559Z,100620.63
2022-11-12T11:33:11.050Z,100616.13
2022-11-12T11:36:12.016Z,100600.25
2022-11-12T11:39:19.768Z,100586.00
2022-11-12T11:42:08.622Z,100616.69
2022-11-12T11:45:08.483Z,100618.59
2022-11-12T11:48:06.140Z,100604.38
2022-11-12T11:51:02.866Z,100597.59
2022-11-12T11:54:15.964Z,100592.84
2022-11-12T11:57:12.319Z,100581.75
2022-11-12T12:00:26.633Z,100546.56
2022-11-12T12:03:50.104Z,100577.31
2022-11-12T12:07:02.148Z,100592.25
2022-11-12T12:10:19.622Z,100597.47
2022-11-12T12:13:08.519Z,100586.75
2022-11-12T12:16:10.542Z,100582.91
2022-11-12T12:19:20.744Z,100587.97
2022-11-12T12:22:17.637Z,100583.53
2022-11-12T12:25:14.906Z,100593.69
2022-11-12T12:28:33.973Z,100598.03
2022-11-12T12:31:27.578Z,100599.47
2022-11-12T12:34:32.120Z,100598.31
2022-11-12T12:37:48.079Z,100607.47
2022-11-12T12:40:38.939Z,100624.25
2022-11-12T12:43:39.686Z,100614.81
2022-11-12T12:46:32.068Z,100609.91
2022-11-12T12:49:38.331Z,100605.72
2022-11-12T12:52:26.432Z,100607.00
2022-11-12T12:55:43.219Z,100617.13
2022-11-12T12:58:49.778Z,100599.97
2022-11-12T13:01:38.973Z,100615.47
2022-11-12T13:04:51.707Z,100626.59
2022-11-12T13:07:49.724Z,100640.31
2022-11-12T13:10:41.075Z,100630.13
2022-11-12T13:13:33.010Z,100638.69
2022-11-12T13:16:54.593Z,100643.34
2022-11-12T13:20:12.065Z,100631.53
2022-11-12T13:23:00.460Z,100615.53
2022-11-12T13:25:49.515Z,100622.16
2022-11-12T13:28:37.921Z,100611.41
2022-11-12T13:31:29.733Z,100611.94
2022-11-12T13:34:24.355Z,100618.22
2022-11-12T13:37:22.505Z,100620.69
2022-11-12T13:40:16.894Z,100628.06
2022-11-12T13:43:11.645Z,100616.03
2022-11-12T13:46:10.815Z,100617.13
2022-11-12T13:49:14.394Z,100610.09
2022-11-12T13:52:02.707Z,100608.50
2022-11-12T13:55:06.926Z,100603.19
2022-11-12T13:57:57.549Z,100599.84
2022-11-12T14:00:57.264Z,100598.09
2022-11-12T14:03:51.304Z,100589.16
2022-11-12T14:06:45.745Z,100586.75
2022-11-12T14:09:52.089Z,100593.31
2022-11-12T14:12:57.066Z,100587.75
2022-11-12T14:16:14.636Z,100578.63
2022-11-12T14:19:03.337Z,100583.00
2022-11-12T14:22:10.757Z,100577.78
2022-11-12T14:25:04.181Z,100580.50
2022-11-12T14:27:54.745Z,100569.44
2022-11-12T14:30:47.024Z,100564.09
2022-11-12T14:33:35.520Z,100560.34
2022-11-12T14:36:24.877Z,100554.94
2022-11-12T14:39:13.955Z,100539.44
2022-11-12T14:42:03.029Z,100534.34
2022-11-12T14:44:51.478Z,100527.06
2022-11-12T14:47:40.498Z,100522.56
2022-11-12T14:50:40.209Z,100521.00
2022-11-12T14:53:42.555Z,100519.41
2022-11-12T14:56:35.846Z,100489.19
2022-11-12T14:59:24.574Z,100505.81
2022-11-12T15:02:49.817Z,100502.88
2022-11-12T15:05:26.383Z,100490.75
2022-11-12T15:08:14.799Z,100490.59
2022-11-12T15:11:45.488Z,100484.59
2022-11-12T15:14:33.655Z,100477.50
2022-11-12T15:17:37.441Z,100479.38
2022-11-12T15:20:25.409Z,100460.22
2022-11-12T15:23:23.280Z,100449.66
2022-11-12T15:26:24.126Z,100463.56
2022-11-12T15:29:12.764Z,100469.03
2022-11-12T15:32:02.791Z,100460.28
2022-11-12T15:34:52.751Z,100450.47
2022-11-12T15:37:44.783Z,100445.44
2022-11-12T15:40:44.380Z,100447.56
2022-11-12T15:43:38.033Z,100436.41
2022-11-12T15:46:26.940Z,100436.34
2022-11-12T15:49:15.213Z,100424.06
2022-11-12T15:52:06.365Z,100420.06
2022-11-12T15:54:54.458Z,100422.38
2022-11-12T15:57:52.721Z,100411.06
2022-11-12T16:00:41.228Z,100390.59
2022-11-12T16:03:30.218Z,100385.88
2022-11-12T16:06:18.670Z,100387.91
2022-11-12T16:09:07.655Z,100380.38
2022-11-12T16:11:58.562Z,100377.97
2022-11-12T16:14:47.376Z,100375.84
2022-11-12T16:17:35.589Z,100354.56
2022-11-12T16:20:29.674Z,100370.53
2022-11-12T16:23:18.500Z,100371.81
2022-11-12T16:26:10.541Z,100375.13
2022-11-12T16:28:58.945Z,100365.06
2022-11-12T16:31:47.933Z,100353.06
2022-11-12T16:34:36.406Z,100346.22
2022-11-12T16:37:25.233Z,100330.50
2022-11-12T16:40:19.745Z,100328.13
2022-11-12T16:43:08.393Z,100337.75
2022-11-12T16:45:56.556Z,100332.63
2022-11-12T16:48:45.358Z,100336.25
2022-11-12T16:51:34.062Z,100332.75
2022-11-12T16:54:22.892Z,100344.47
2022-11-12T16:57:12.867Z,100331.50
2022-11-12T17:00:01.619Z,100324.22
2022-11-12T17:02:53.466Z,100322.75
2022-11-12T17:05:42.263Z,100328.19
2022-11-12T17:08:33.960Z,100333.72
2022-11-12T17:11:23.658Z,100315.31
2022-11-12T17:14:12.252Z,100313.94
2022-11-12T17:17:01.423Z,100301.78
2022-11-12T17:19:49.616Z,100307.84
2022-11-12T17:22:39.274Z,100303.28
2022-11-12T17:25:27.437Z,100294.59
2022-11-12T17:28:16.118Z,100283.78
2022-11-12T17:31:24.951Z,100283.44
2022-11-12T17:34:13.757Z,100270.94
2022-11-12T17:37:01.985Z,100269.09
2022-11-12T17:39:50.698Z,100258.28
2022-11-12T17:42:38.981Z,100255.91
2022-11-12T17:45:29.897Z,100246.19
2022-11-12T17:48:18.333Z,100241.88
2022-11-12T17:51:15.751Z,100237.06
2022-11-12T17:54:03.895Z,100242.50
2022-11-12T17:56:52.694Z,100245.78
2022-11-12T17:59:40.768Z,100244.53
2022-11-12T18:02:29.558Z,100243.84
2022-11-12T18:05:17.920Z,100245.75
2022-11-12T18:08:06.814Z,100247.03
2022-11-12T18:10:55.097Z,100260.25
2022-11-12T18:13:44.233Z,100246.59
2022-11-12T18:16:32.361Z,100241.28
2022-11-12T18:19:21.161Z,100240.66
2022-11-12T18:22:11.236Z,100235.50
2022-11-12T18:25:00.371Z,100232.41
2022-11-12T18:27:48.723Z,100238.81
2022-11-12T18:30:40.617Z,100241.41
2022-11-12T18:33:29.178Z,100228.41
2022-11-12T18:36:27.544Z,100223.78
2022-11-12T18:39:16.237Z,100222.88
2022-11-12T18:42:06.075Z,100211.84
2022-11-12T18:44:54.103Z,100207.75
2022-11-12T18:47:43.079Z,100203.53
2022-11-12T18:50:31.593Z,100206.47
2022-11-12T18:53:20.425Z,100195.78
2022-11-12T18:56:14.629Z,100186.50
2022-11-12T18:59:03.279Z,100185.09
2022-11-12T19:01:51.996Z,100202.72
2022-11-12T19:04:45.191Z,100192.72
2022-11-12T19:07:33.883Z,100195.25
2022-11-12T19:10:22.452Z,100197.19
2022-11-12T19:13:10.895Z,100185.72
2022-11-12T19:16:08.540Z,100181.88
2022-11-12T19:18:57.087Z,100183.09
2022-11-12T19:21:45.976Z,100177.13
2022-11-12T19:24:34.182Z,100179.69
2022-11-12T19:27:24.288Z,100173.47
2022-11-12T19:30:13.148Z,100172.31
2022-11-12T19:33:02.238Z,100173.94
2022-11-12T19:35:50.740Z,100176.69
2022-11-12T19:38:39.867Z,100165.81
2022-11-12T19:41:28.209Z,100171.84
2022-11-12T19:44:17.315Z,100174.59
2022-11-12T19:47:05.789Z,100175.31
2022-11-12T19:49:54.476Z,100187.06
2022-11-12T19:52:42.748Z,100184.78
2022-11-12T19:55:38.632Z,100188.00
2022-11-12T19:58:28.612Z,100195.44
2022-11-12T20:01:19.892Z,100192.06
2022-11-12T20:04:13.000Z,100187.94
2022-11-12T20:07:01.756Z,100190.72
2022-11-12T20:09:50.343Z,100175.25
2022-11-12T20:12:41.183Z,100194.16
2022-11-12T20:15:29.422Z,100185.53
2022-11-12T20:18:18.785Z,100193.69
2022-11-12T20:21:07.610Z,100205.16
2022-11-12T20:23:56.510Z,100196.47
2022-11-12T20:26:44.711Z,100188.72
2022-11-12T20:29:33.269Z,100207.53
2022-11-12T20:32:23.584Z,100200.84
2022-11-12T20:35:17.785Z,100210.38
2022-11-12T20:38:07.686Z,100213.38
2022-11-12T20:41:03.739Z,100210.50
2022-11-12T20:43:56.778Z,100214.56
2022-11-12T20:46:45.900Z,100218.78
2022-11-12T20:49:34.421Z,100221.31
2022-11-12T20:52:23.296Z,100222.22
2022-11-12T20:55:11.595Z,100225.50
2022-11-12T20:58:04.193Z,100215.72
2022-11-12T21:00:52.647Z,100226.38
2022-11-12T21:03:42.951Z,100221.94
2022-11-12T21:06:31.357Z,100213.84
2022-11-12T21:09:20.138Z,100228.28
2022-11-12T21:12:08.983Z,100234.25
2022-11-12T21:14:58.043Z,100231.34
2022-11-12T21:17:46.307Z,100237.03
2022-11-12T21:20:35.472Z,100229.63
2022-11-12T21:23:23.936Z,100226.16
2022-11-12T21:26:24.104Z,100225.59
2022-11-12T21:29:14.452Z,100233.34
2022-11-12T21:32:07.373Z,100223.38
2022-11-12T21:34:58.231Z,100218.28
2022-11-12T21:37:47.265Z,100210.78
2022-11-12T21:40:36.364Z,100222.72
2022-11-12T21:43:26.089Z,100214.41
2022-11-12T21:46:19.485Z,100210.50
2022-11-12T21:49:08.574Z,100208.78
2022-11-12T21:51:59.457Z,100207.97
2022-11-12T21:54:48.020Z,100213.13
2022-11-12T21:57:36.294Z,100216.66
2022-11-12T22:00:41.424Z,100212.63
2022-11-12T22:03:33.672Z,100216.75
2022-11-12T22:06:24.153Z,100213.53
2022-11-12T22:09:12.224Z,100206.16
2022-11-12T22:12:01.008Z,100202.13
2022-11-12T22:14:49.267Z,100207.50
2022-11-12T22:17:38.125Z,100203.41
2022-11-12T22:20:26.904Z,100211.41
2022-11-12T22:23:15.522Z,100214.13
2022-11-12T22:26:08.150Z,100214.78
2022-11-12T22:28:58.130Z,100219.75
2022-11-12T22:31:46.300Z,100230.06
2022-11-12T22:34:35.241Z,100232.59
2022-11-12T22:37:23.581Z,100232.50
2022-11-12T22:40:13.663Z,100211.66
2022-11-12T22:43:02.246Z,100232.81
2022-11-12T22:45:50.487Z,100236.25
2022-11-12T22:48:39.283Z,100240.28
2022-11-12T22:51:30.624Z,100256.00
2022-11-12T22:54:19.164Z,100263.69
2022-11-12T22:57:08.032Z,100285.06
2022-11-12T22:59:56.261Z,100294.84
2022-11-12T23:02:47.576Z,100304.06
2022-11-12T23:05:37.966Z,100271.75
2022-11-12T23:08:41.835Z,100304.19
2022-11-12T23:11:30.389Z,100311.84
2022-11-12T23:14:19.569Z,100310.50
2022-11-12T23:17:07.845Z,100304.13
2022-11-12T23:19:56.381Z,100291.56
2022-11-12T23:22:44.735Z,100296.34
2022-11-12T23:25:35.805Z,100289.13
2022-11-12T23:28:24.239Z,100294.91
2022-11-12T23:31:25.304Z,100287.41
2022-11-12T23:34:14.138Z,100292.50
2022-11-12T23:37:02.794Z,100290.28
2022-11-12T23:39:51.123Z,100298.66
2022-11-12T23:42:39.762Z,100306.72
2022-11-12T23:45:33.578Z,100315.66
2022-11-12T23:48:23.710Z,100309.63
2022-11-12T23:51:16.906Z,100315.97
2022-11-12T23:54:05.677Z,100293.66
2022-11-12T23:56:53.979Z,100313.66
2022-11-12T23:59:42.465Z,100282.44
